Westbrookville, New York
Current Conditions -  °F | °C
As of 10:54 AM on Wednesday 26 Nov 2014 (Local Time) from KMGJ Reporting Station
Heavy Snow Heavy Snow  
Wind Chill: 27°   Ceiling: 500
Heat Index: 33°   Visibility: 0.25mi
Dew Point: 31°   Wind: 7mph
Humidity: 92%   Direction: 30°NNE
Pressure: 30.12"   Gusts: NA
Location:  41.5°N, 74.56°W
Report Text: KMGJ 261554Z AUTO 03006KT 1/4SM +SN FG VV005 01/M01 A3012 RMK AO2 PRESFR SLP204 P0017 T00061006 TSNO
Loading
Personal Weather Stations






























Interactive Weather Map New forecast layout! Learn more

10-Day Weather Forecast

Advertisements
Track Severe Weather on mobile